sensor_id;sensor_type;location;lat;lon;timestamp;temperature;humidity
19435;DHT22;9853;50.848;4.108;2023-02-26T00:00:13;1.80;99.90
19435;DHT22;9853;50.848;4.108;2023-02-26T00:02:14;1.90;99.90
19435;DHT22;9853;50.848;4.108;2023-02-26T00:04:15;2.00;99.90
19435;DHT22;9853;50.848;4.108;2023-02-26T00:06:16;2.00;99.90
19435;DHT22;9853;50.848;4.108;2023-02-26T00:08:17;1.90;99.90
19435;DHT22;9853;50.848;4.108;2023-02-26T00:10:18;2.00;99.90
19435;DHT22;9853;50.848;4.108;2023-02-26T00:12:20;2.00;99.90
19435;DHT22;9853;50.848;4.108;2023-02-26T00:14:21;1.90;99.90
19435;DHT22;9853;50.848;4.108;2023-02-26T00:16:49;1.90;99.90
19435;DHT22;9853;50.848;4.108;2023-02-26T00:18:51;1.90;99.90
19435;DHT22;9853;50.848;4.108;2023-02-26T00:20:52;1.90;99.90
19435;DHT22;9853;50.848;4.108;2023-02-26T00:22:53;1.90;99.90
19435;DHT22;9853;50.848;4.108;2023-02-26T00:24:54;1.90;99.90
19435;DHT22;9853;50.848;4.108;2023-02-26T00:26:55;1.90;99.90
19435;DHT22;9853;50.848;4.108;2023-02-26T00:28:56;1.80;99.90
19435;DHT22;9853;50.848;4.108;2023-02-26T00:30:57;1.80;99.90
19435;DHT22;9853;50.848;4.108;2023-02-26T00:32:58;1.80;99.90
19435;DHT22;9853;50.848;4.108;2023-02-26T00:34:59;1.80;99.90
19435;DHT22;9853;50.848;4.108;2023-02-26T00:37:09;1.90;99.90
19435;DHT22;9853;50.848;4.108;2023-02-26T00:41:19;1.80;99.90
19435;DHT22;9853;50.848;4.108;2023-02-26T00:43:23;1.80;99.90
19435;DHT22;9853;50.848;4.108;2023-02-26T00:45:24;1.70;99.90
19435;DHT22;9853;50.848;4.108;2023-02-26T00:49:49;1.60;99.90
19435;DHT22;9853;50.848;4.108;2023-02-26T00:51:58;1.60;99.90
19435;DHT22;9853;50.848;4.108;2023-02-26T00:54:28;1.60;99.90
19435;DHT22;9853;50.848;4.108;2023-02-26T00:56:29;1.50;99.90
19435;DHT22;9853;50.848;4.108;2023-02-26T00:58:30;1.50;99.90
19435;DHT22;9853;50.848;4.108;2023-02-26T01:00:30;1.50;99.90
19435;DHT22;9853;50.848;4.108;2023-02-26T01:02:31;1.40;99.90
19435;DHT22;9853;50.848;4.108;2023-02-26T01:04:32;1.50;99.90
19435;DHT22;9853;50.848;4.108;2023-02-26T01:06:34;1.50;99.90
19435;DHT22;9853;50.848;4.108;2023-02-26T01:08:44;1.30;99.90
19435;DHT22;9853;50.848;4.108;2023-02-26T01:10:46;1.40;99.90
19435;DHT22;9853;50.848;4.108;2023-02-26T01:12:47;1.30;99.90
19435;DHT22;9853;50.848;4.108;2023-02-26T01:14:48;1.20;99.90
19435;DHT22;9853;50.848;4.108;2023-02-26T01:17:13;1.10;99.90
19435;DHT22;9853;50.848;4.108;2023-02-26T01:21:35;1.20;99.90
19435;DHT22;9853;50.848;4.108;2023-02-26T01:23:42;1.20;99.90
19435;DHT22;9853;50.848;4.108;2023-02-26T01:26:32;1.00;99.90
19435;DHT22;9853;50.848;4.108;2023-02-26T01:28:14;1.00;99.90
19435;DHT22;9853;50.848;4.108;2023-02-26T01:30:16;1.10;99.90
19435;DHT22;9853;50.848;4.108;2023-02-26T01:32:25;1.00;99.90
19435;DHT22;9853;50.848;4.108;2023-02-26T01:37:27;1.20;99.90
19435;DHT22;9853;50.848;4.108;2023-02-26T01:40:15;1.20;99.90
19435;DHT22;9853;50.848;4.108;2023-02-26T01:42:22;1.20;99.90
19435;DHT22;9853;50.848;4.108;2023-02-26T01:47:01;1.30;99.90
19435;DHT22;9853;50.848;4.108;2023-02-26T01:49:04;1.40;99.90
19435;DHT22;9853;50.848;4.108;2023-02-26T01:51:06;1.30;99.90
19435;DHT22;9853;50.848;4.108;2023-02-26T01:53:23;1.10;99.90
19435;DHT22;9853;50.848;4.108;2023-02-26T01:55:26;1.10;99.90
19435;DHT22;9853;50.848;4.108;2023-02-26T01:57:28;1.20;99.90
19435;DHT22;9853;50.848;4.108;2023-02-26T01:59:28;1.30;99.90
19435;DHT22;9853;50.848;4.108;2023-02-26T02:01:32;1.30;99.90
19435;DHT22;9853;50.848;4.108;2023-02-26T02:03:36;1.30;99.90
19435;DHT22;9853;50.848;4.108;2023-02-26T02:05:42;1.30;99.90
19435;DHT22;9853;50.848;4.108;2023-02-26T02:07:45;1.20;99.90
19435;DHT22;9853;50.848;4.108;2023-02-26T02:09:46;1.30;99.90
19435;DHT22;9853;50.848;4.108;2023-02-26T02:14:15;1.30;99.90
19435;DHT22;9853;50.848;4.108;2023-02-26T02:18:48;1.20;99.90
19435;DHT22;9853;50.848;4.108;2023-02-26T02:23:24;1.50;99.90
19435;DHT22;9853;50.848;4.108;2023-02-26T02:30:02;2.20;99.90
19435;DHT22;9853;50.848;4.108;2023-02-26T02:32:09;2.40;99.90
19435;DHT22;9853;50.848;4.108;2023-02-26T02:34:32;2.20;99.90
19435;DHT22;9853;50.848;4.108;2023-02-26T02:36:37;1.80;99.90
19435;DHT22;9853;50.848;4.108;2023-02-26T02:38:54;1.40;99.90
19435;DHT22;9853;50.848;4.108;2023-02-26T02:41:26;1.30;99.90
19435;DHT22;9853;50.848;4.108;2023-02-26T02:43:32;1.10;99.90
19435;DHT22;9853;50.848;4.108;2023-02-26T02:45:50;1.10;99.90
19435;DHT22;9853;50.848;4.108;2023-02-26T02:48:01;1.20;99.90
19435;DHT22;9853;50.848;4.108;2023-02-26T02:52:24;2.00;99.90
19435;DHT22;9853;50.848;4.108;2023-02-26T02:54:32;2.30;99.90
19435;DHT22;9853;50.848;4.108;2023-02-26T02:56:55;2.30;99.90
19435;DHT22;9853;50.848;4.108;2023-02-26T03:01:09;2.20;99.90
19435;DHT22;9853;50.848;4.108;2023-02-26T03:03:33;2.30;99.90
19435;DHT22;9853;50.848;4.108;2023-02-26T03:05:35;2.50;99.90
19435;DHT22;9853;50.848;4.108;2023-02-26T03:07:41;2.60;99.90
19435;DHT22;9853;50.848;4.108;2023-02-26T03:09:43;2.60;99.90
19435;DHT22;9853;50.848;4.108;2023-02-26T03:11:45;2.60;99.90
19435;DHT22;9853;50.848;4.108;2023-02-26T03:13:48;2.60;99.90
19435;DHT22;9853;50.848;4.108;2023-02-26T03:20:26;2.40;99.90
19435;DHT22;9853;50.848;4.108;2023-02-26T03:25:16;2.40;99.90
19435;DHT22;9853;50.848;4.108;2023-02-26T20:38:48;3.30;99.90
19435;DHT22;9853;50.848;4.108;2023-02-26T20:55:48;3.20;99.90
19435;DHT22;9853;50.848;4.108;2023-02-26T20:58:54;3.20;99.90
19435;DHT22;9853;50.848;4.108;2023-02-26T21:01:22;3.20;99.90
19435;DHT22;9853;50.848;4.108;2023-02-26T21:07:10;3.20;99.90
19435;DHT22;9853;50.848;4.108;2023-02-26T21:12:26;3.20;99.90
19435;DHT22;9853;50.848;4.108;2023-02-26T21:17:38;3.10;99.90
19435;DHT22;9853;50.848;4.108;2023-02-26T21:20:27;3.20;99.90
19435;DHT22;9853;50.848;4.108;2023-02-26T21:22:52;3.10;99.90
19435;DHT22;9853;50.848;4.108;2023-02-26T21:25:49;3.10;99.90
19435;DHT22;9853;50.848;4.108;2023-02-26T21:28:10;3.00;99.90
19435;DHT22;9853;50.848;4.108;2023-02-26T21:30:43;3.00;99.90
19435;DHT22;9853;50.848;4.108;2023-02-26T21:33:04;3.00;99.90
19435;DHT22;9853;50.848;4.108;2023-02-26T21:57:10;2.90;99.90
19435;DHT22;9853;50.848;4.108;2023-02-26T22:00:02;2.90;99.90
19435;DHT22;9853;50.848;4.108;2023-02-26T22:02:33;2.90;99.90
19435;DHT22;9853;50.848;4.108;2023-02-26T22:04:55;2.80;99.90
19435;DHT22;9853;50.848;4.108;2023-02-26T22:07:32;2.80;99.90
19435;DHT22;9853;50.848;4.108;2023-02-26T22:10:35;2.70;99.90
19435;DHT22;9853;50.848;4.108;2023-02-26T22:13:01;2.70;99.90
19435;DHT22;9853;50.848;4.108;2023-02-26T22:16:02;2.70;99.90
19435;DHT22;9853;50.848;4.108;2023-02-26T22:18:53;2.60;99.90
19435;DHT22;9853;50.848;4.108;2023-02-26T22:21:14;2.60;99.90
19435;DHT22;9853;50.848;4.108;2023-02-26T22:23:34;2.60;99.90
19435;DHT22;9853;50.848;4.108;2023-02-26T22:26:19;2.60;99.90
19435;DHT22;9853;50.848;4.108;2023-02-26T22:28:49;2.60;99.90
19435;DHT22;9853;50.848;4.108;2023-02-26T22:31:28;2.50;99.90
19435;DHT22;9853;50.848;4.108;2023-02-26T22:34:22;2.50;99.90
19435;DHT22;9853;50.848;4.108;2023-02-26T22:36:44;2.40;99.90
19435;DHT22;9853;50.848;4.108;2023-02-26T22:39:22;2.40;99.90
19435;DHT22;9853;50.848;4.108;2023-02-26T22:42:35;2.30;99.90
19435;DHT22;9853;50.848;4.108;2023-02-26T22:45:22;2.40;99.90
19435;DHT22;9853;50.848;4.108;2023-02-26T22:48:23;2.30;99.90
19435;DHT22;9853;50.848;4.108;2023-02-26T22:51:06;2.40;99.90
19435;DHT22;9853;50.848;4.108;2023-02-26T22:53:06;2.30;99.90
19435;DHT22;9853;50.848;4.108;2023-02-26T22:55:46;2.30;99.90
19435;DHT22;9853;50.848;4.108;2023-02-26T23:00:48;2.30;99.90
19435;DHT22;9853;50.848;4.108;2023-02-26T23:02:49;2.30;99.90
19435;DHT22;9853;50.848;4.108;2023-02-26T23:05:16;2.20;99.90
19435;DHT22;9853;50.848;4.108;2023-02-26T23:08:00;2.20;99.90
19435;DHT22;9853;50.848;4.108;2023-02-26T23:10:33;2.10;99.90
19435;DHT22;9853;50.848;4.108;2023-02-26T23:13:23;2.20;99.90
19435;DHT22;9853;50.848;4.108;2023-02-26T23:19:35;2.20;99.90
19435;DHT22;9853;50.848;4.108;2023-02-26T23:22:00;2.10;99.90
19435;DHT22;9853;50.848;4.108;2023-02-26T23:24:19;2.10;99.90
19435;DHT22;9853;50.848;4.108;2023-02-26T23:27:13;2.10;99.90
19435;DHT22;9853;50.848;4.108;2023-02-26T23:32:43;2.00;99.90
19435;DHT22;9853;50.848;4.108;2023-02-26T23:38:42;2.00;99.90
19435;DHT22;9853;50.848;4.108;2023-02-26T23:43:56;2.00;99.90
19435;DHT22;9853;50.848;4.108;2023-02-26T23:46:16;1.90;99.90
19435;DHT22;9853;50.848;4.108;2023-02-26T23:49:00;1.90;99.90
19435;DHT22;9853;50.848;4.108;2023-02-26T23:51:19;1.90;99.90
19435;DHT22;9853;50.848;4.108;2023-02-26T23:57:01;1.90;99.90
